sensor_id;sensor_type;location;lat;lon;timestamp;P1;durP1;ratioP1;P2;durP2;ratioP2
10031;SDS011;5056;44.272;19.892;2023-01-16T00:01:22;83.87;;;55.30;;
10031;SDS011;5056;44.272;19.892;2023-01-16T00:03:50;82.47;;;52.17;;
10031;SDS011;5056;44.272;19.892;2023-01-16T00:06:17;79.67;;;45.80;;
10031;SDS011;5056;44.272;19.892;2023-01-16T00:08:52;83.77;;;46.10;;
10031;SDS011;5056;44.272;19.892;2023-01-16T00:11:19;83.20;;;46.33;;
10031;SDS011;5056;44.272;19.892;2023-01-16T00:13:46;63.17;;;40.90;;
10031;SDS011;5056;44.272;19.892;2023-01-16T00:16:13;82.57;;;43.67;;
10031;SDS011;5056;44.272;19.892;2023-01-16T00:18:44;81.07;;;43.93;;
10031;SDS011;5056;44.272;19.892;2023-01-16T00:21:11;77.27;;;44.47;;
10031;SDS011;5056;44.272;19.892;2023-01-16T00:23:40;78.83;;;45.40;;
10031;SDS011;5056;44.272;19.892;2023-01-16T00:26:11;70.93;;;41.00;;
10031;SDS011;5056;44.272;19.892;2023-01-16T00:28:38;66.10;;;40.23;;
10031;SDS011;5056;44.272;19.892;2023-01-16T00:31:07;102.63;;;50.77;;
10031;SDS011;5056;44.272;19.892;2023-01-16T00:33:34;103.03;;;54.90;;
10031;SDS011;5056;44.272;19.892;2023-01-16T00:36:01;91.40;;;51.33;;
10031;SDS011;5056;44.272;19.892;2023-01-16T00:38:32;92.00;;;49.20;;
10031;SDS011;5056;44.272;19.892;2023-01-16T00:40:59;91.87;;;48.63;;
10031;SDS011;5056;44.272;19.892;2023-01-16T00:43:29;81.93;;;47.70;;
10031;SDS011;5056;44.272;19.892;2023-01-16T00:45:58;86.40;;;47.37;;
10031;SDS011;5056;44.272;19.892;2023-01-16T00:48:25;74.87;;;44.07;;
10031;SDS011;5056;44.272;19.892;2023-01-16T00:50:52;64.43;;;39.13;;
10031;SDS011;5056;44.272;19.892;2023-01-16T00:53:19;69.17;;;39.43;;
10031;SDS011;5056;44.272;19.892;2023-01-16T00:55:46;60.77;;;37.60;;
10031;SDS011;5056;44.272;19.892;2023-01-16T00:58:16;58.90;;;37.10;;
10031;SDS011;5056;44.272;19.892;2023-01-16T01:00:46;77.07;;;46.77;;
10031;SDS011;5056;44.272;19.892;2023-01-16T01:03:14;78.37;;;47.80;;
10031;SDS011;5056;44.272;19.892;2023-01-16T01:05:41;88.07;;;52.13;;
10031;SDS011;5056;44.272;19.892;2023-01-16T01:08:08;89.63;;;51.93;;
10031;SDS011;5056;44.272;19.892;2023-01-16T01:10:37;84.80;;;48.83;;
10031;SDS011;5056;44.272;19.892;2023-01-16T01:13:04;90.13;;;49.23;;
10031;SDS011;5056;44.272;19.892;2023-01-16T01:15:31;88.50;;;48.43;;
10031;SDS011;5056;44.272;19.892;2023-01-16T01:18:01;76.47;;;46.70;;
10031;SDS011;5056;44.272;19.892;2023-01-16T01:20:28;77.23;;;45.17;;
10031;SDS011;5056;44.272;19.892;2023-01-16T01:22:56;78.63;;;45.50;;
10031;SDS011;5056;44.272;19.892;2023-01-16T01:25:24;81.10;;;44.43;;
10031;SDS011;5056;44.272;19.892;2023-01-16T01:27:51;75.13;;;44.40;;
10031;SDS011;5056;44.272;19.892;2023-01-16T01:30:19;81.07;;;46.67;;
10031;SDS011;5056;44.272;19.892;2023-01-16T01:32:46;79.33;;;44.73;;
10031;SDS011;5056;44.272;19.892;2023-01-16T01:35:18;78.47;;;46.20;;
10031;SDS011;5056;44.272;19.892;2023-01-16T01:38:00;69.17;;;41.20;;
10031;SDS011;5056;44.272;19.892;2023-01-16T01:40:28;62.23;;;39.67;;
10031;SDS011;5056;44.272;19.892;2023-01-16T01:42:55;54.87;;;36.67;;
10031;SDS011;5056;44.272;19.892;2023-01-16T01:45:27;52.90;;;35.33;;
10031;SDS011;5056;44.272;19.892;2023-01-16T01:47:56;54.37;;;34.13;;
10031;SDS011;5056;44.272;19.892;2023-01-16T01:50:33;55.30;;;35.90;;
10031;SDS011;5056;44.272;19.892;2023-01-16T01:53:03;56.07;;;35.10;;
10031;SDS011;5056;44.272;19.892;2023-01-16T01:55:33;55.27;;;35.63;;
10031;SDS011;5056;44.272;19.892;2023-01-16T01:58:00;55.93;;;35.60;;
10031;SDS011;5056;44.272;19.892;2023-01-16T02:00:28;57.30;;;38.37;;
10031;SDS011;5056;44.272;19.892;2023-01-16T02:05:46;67.47;;;43.27;;
10031;SDS011;5056;44.272;19.892;2023-01-16T02:08:17;66.23;;;42.43;;
10031;SDS011;5056;44.272;19.892;2023-01-16T02:10:47;71.17;;;44.57;;
10031;SDS011;5056;44.272;19.892;2023-01-16T02:13:17;71.97;;;46.73;;
10031;SDS011;5056;44.272;19.892;2023-01-16T02:15:47;83.80;;;52.37;;
10031;SDS011;5056;44.272;19.892;2023-01-16T02:18:28;104.07;;;58.00;;
10031;SDS011;5056;44.272;19.892;2023-01-16T02:21:17;108.03;;;61.93;;
10031;SDS011;5056;44.272;19.892;2023-01-16T02:24:07;96.50;;;57.23;;
10031;SDS011;5056;44.272;19.892;2023-01-16T02:29:52;81.27;;;50.93;;
10031;SDS011;5056;44.272;19.892;2023-01-16T02:32:49;96.97;;;57.33;;
10031;SDS011;5056;44.272;19.892;2023-01-16T02:35:26;91.27;;;54.30;;
10031;SDS011;5056;44.272;19.892;2023-01-16T02:37:59;93.57;;;56.80;;
10031;SDS011;5056;44.272;19.892;2023-01-16T02:40:32;89.93;;;53.67;;
10031;SDS011;5056;44.272;19.892;2023-01-16T02:43:08;75.93;;;48.57;;
10031;SDS011;5056;44.272;19.892;2023-01-16T02:45:42;73.80;;;46.80;;
10031;SDS011;5056;44.272;19.892;2023-01-16T02:48:14;67.73;;;43.93;;
10031;SDS011;5056;44.272;19.892;2023-01-16T02:53:43;51.37;;;33.67;;
10031;SDS011;5056;44.272;19.892;2023-01-16T02:56:14;46.23;;;29.83;;
10031;SDS011;5056;44.272;19.892;2023-01-16T02:58:45;47.97;;;32.53;;
10031;SDS011;5056;44.272;19.892;2023-01-16T03:01:12;51.03;;;34.30;;
10031;SDS011;5056;44.272;19.892;2023-01-16T03:03:44;49.87;;;32.73;;
10031;SDS011;5056;44.272;19.892;2023-01-16T03:06:20;47.27;;;31.37;;
10031;SDS011;5056;44.272;19.892;2023-01-16T03:08:56;43.43;;;29.83;;
10031;SDS011;5056;44.272;19.892;2023-01-16T03:11:30;42.90;;;29.20;;
10031;SDS011;5056;44.272;19.892;2023-01-16T03:14:01;41.07;;;29.23;;
10031;SDS011;5056;44.272;19.892;2023-01-16T03:16:52;39.57;;;27.97;;
10031;SDS011;5056;44.272;19.892;2023-01-16T03:19:36;35.00;;;23.77;;
10031;SDS011;5056;44.272;19.892;2023-01-16T03:22:10;32.13;;;21.87;;
10031;SDS011;5056;44.272;19.892;2023-01-16T03:24:43;28.67;;;20.97;;
10031;SDS011;5056;44.272;19.892;2023-01-16T03:27:22;29.87;;;21.23;;
10031;SDS011;5056;44.272;19.892;2023-01-16T03:29:55;24.60;;;19.67;;
10031;SDS011;5056;44.272;19.892;2023-01-16T03:32:27;33.80;;;20.50;;
10031;SDS011;5056;44.272;19.892;2023-01-16T03:35:00;29.53;;;21.67;;
10031;SDS011;5056;44.272;19.892;2023-01-16T03:37:32;29.80;;;22.50;;
10031;SDS011;5056;44.272;19.892;2023-01-16T03:40:07;33.20;;;24.23;;
10031;SDS011;5056;44.272;19.892;2023-01-16T03:42:36;41.33;;;26.90;;
10031;SDS011;5056;44.272;19.892;2023-01-16T03:45:06;41.10;;;27.57;;
10031;SDS011;5056;44.272;19.892;2023-01-16T03:47:38;41.90;;;26.90;;
10031;SDS011;5056;44.272;19.892;2023-01-16T03:50:08;44.80;;;28.73;;
10031;SDS011;5056;44.272;19.892;2023-01-16T03:52:39;46.63;;;31.33;;
10031;SDS011;5056;44.272;19.892;2023-01-16T03:55:07;42.93;;;28.67;;
10031;SDS011;5056;44.272;19.892;2023-01-16T03:57:43;34.93;;;23.50;;
10031;SDS011;5056;44.272;19.892;2023-01-16T04:00:12;29.37;;;21.67;;
10031;SDS011;5056;44.272;19.892;2023-01-16T04:02:41;34.03;;;21.63;;
10031;SDS011;5056;44.272;19.892;2023-01-16T04:05:14;29.07;;;20.33;;
10031;SDS011;5056;44.272;19.892;2023-01-16T04:07:43;31.47;;;20.67;;
10031;SDS011;5056;44.272;19.892;2023-01-16T04:10:11;32.03;;;24.43;;
10031;SDS011;5056;44.272;19.892;2023-01-16T04:12:40;32.50;;;23.43;;
10031;SDS011;5056;44.272;19.892;2023-01-16T04:15:10;31.73;;;22.40;;
10031;SDS011;5056;44.272;19.892;2023-01-16T04:17:38;27.80;;;19.77;;
10031;SDS011;5056;44.272;19.892;2023-01-16T04:20:06;28.43;;;19.87;;
10031;SDS011;5056;44.272;19.892;2023-01-16T04:22:36;31.73;;;24.10;;
10031;SDS011;5056;44.272;19.892;2023-01-16T04:25:03;31.07;;;22.23;;
10031;SDS011;5056;44.272;19.892;2023-01-16T04:27:32;32.63;;;22.50;;
10031;SDS011;5056;44.272;19.892;2023-01-16T04:29:59;33.00;;;23.43;;
10031;SDS011;5056;44.272;19.892;2023-01-16T04:32:26;46.03;;;32.40;;
10031;SDS011;5056;44.272;19.892;2023-01-16T04:34:53;51.27;;;34.70;;
10031;SDS011;5056;44.272;19.892;2023-01-16T04:37:20;50.53;;;33.83;;
10031;SDS011;5056;44.272;19.892;2023-01-16T04:39:49;52.63;;;35.80;;
10031;SDS011;5056;44.272;19.892;2023-01-16T04:42:18;63.27;;;40.20;;
10031;SDS011;5056;44.272;19.892;2023-01-16T04:44:45;74.67;;;45.43;;
10031;SDS011;5056;44.272;19.892;2023-01-16T04:47:12;71.10;;;44.00;;
10031;SDS011;5056;44.272;19.892;2023-01-16T04:49:40;99.57;;;55.63;;
10031;SDS011;5056;44.272;19.892;2023-01-16T04:52:08;97.47;;;56.23;;
10031;SDS011;5056;44.272;19.892;2023-01-16T04:54:35;101.57;;;59.33;;
10031;SDS011;5056;44.272;19.892;2023-01-16T04:57:03;76.53;;;45.87;;
10031;SDS011;5056;44.272;19.892;2023-01-16T04:59:30;59.37;;;37.13;;
10031;SDS011;5056;44.272;19.892;2023-01-16T05:01:57;55.40;;;36.73;;
10031;SDS011;5056;44.272;19.892;2023-01-16T05:04:24;52.87;;;36.67;;
10031;SDS011;5056;44.272;19.892;2023-01-16T05:06:51;75.50;;;48.43;;
10031;SDS011;5056;44.272;19.892;2023-01-16T05:09:18;93.20;;;59.37;;
10031;SDS011;5056;44.272;19.892;2023-01-16T05:11:47;100.50;;;60.93;;
10031;SDS011;5056;44.272;19.892;2023-01-16T05:14:17;102.17;;;62.03;;
10031;SDS011;5056;44.272;19.892;2023-01-16T05:16:44;93.77;;;64.27;;
10031;SDS011;5056;44.272;19.892;2023-01-16T05:19:11;100.80;;;66.60;;
10031;SDS011;5056;44.272;19.892;2023-01-16T05:21:41;137.27;;;85.47;;
10031;SDS011;5056;44.272;19.892;2023-01-16T05:24:08;142.17;;;88.50;;
10031;SDS011;5056;44.272;19.892;2023-01-16T05:26:46;165.83;;;106.60;;
10031;SDS011;5056;44.272;19.892;2023-01-16T05:29:28;154.50;;;101.97;;
10031;SDS011;5056;44.272;19.892;2023-01-16T05:32:03;168.10;;;105.83;;
10031;SDS011;5056;44.272;19.892;2023-01-16T05:34:40;174.53;;;110.40;;
10031;SDS011;5056;44.272;19.892;2023-01-16T05:37:21;226.17;;;136.70;;
10031;SDS011;5056;44.272;19.892;2023-01-16T05:40:20;214.93;;;131.00;;
10031;SDS011;5056;44.272;19.892;2023-01-16T05:42:48;193.63;;;117.97;;
10031;SDS011;5056;44.272;19.892;2023-01-16T05:45:56;156.60;;;97.47;;
10031;SDS011;5056;44.272;19.892;2023-01-16T05:48:57;156.63;;;96.50;;
10031;SDS011;5056;44.272;19.892;2023-01-16T05:54:20;145.67;;;87.63;;
10031;SDS011;5056;44.272;19.892;2023-01-16T05:56:52;128.63;;;81.97;;
10031;SDS011;5056;44.272;19.892;2023-01-16T05:59:47;128.37;;;80.03;;
10031;SDS011;5056;44.272;19.892;2023-01-16T06:02:27;122.57;;;77.50;;
10031;SDS011;5056;44.272;19.892;2023-01-16T06:07:58;111.03;;;70.50;;
10031;SDS011;5056;44.272;19.892;2023-01-16T06:10:25;98.43;;;64.30;;
10031;SDS011;5056;44.272;19.892;2023-01-16T06:13:04;105.60;;;69.03;;
10031;SDS011;5056;44.272;19.892;2023-01-16T06:15:36;112.63;;;76.37;;
10031;SDS011;5056;44.272;19.892;2023-01-16T06:18:10;130.17;;;83.03;;
10031;SDS011;5056;44.272;19.892;2023-01-16T06:24:02;91.67;;;61.23;;
10031;SDS011;5056;44.272;19.892;2023-01-16T06:26:31;84.50;;;57.33;;
10031;SDS011;5056;44.272;19.892;2023-01-16T06:29:01;85.03;;;54.73;;
10031;SDS011;5056;44.272;19.892;2023-01-16T06:31:28;86.10;;;56.37;;
10031;SDS011;5056;44.272;19.892;2023-01-16T06:34:11;63.37;;;43.17;;
10031;SDS011;5056;44.272;19.892;2023-01-16T06:36:39;53.63;;;39.27;;
10031;SDS011;5056;44.272;19.892;2023-01-16T06:39:11;50.07;;;36.10;;
10031;SDS011;5056;44.272;19.892;2023-01-16T06:41:38;67.47;;;43.00;;
10031;SDS011;5056;44.272;19.892;2023-01-16T06:44:05;59.93;;;43.33;;
10031;SDS011;5056;44.272;19.892;2023-01-16T06:46:34;69.40;;;48.20;;
10031;SDS011;5056;44.272;19.892;2023-01-16T06:49:02;66.50;;;48.30;;
10031;SDS011;5056;44.272;19.892;2023-01-16T06:54:11;70.97;;;50.20;;
10031;SDS011;5056;44.272;19.892;2023-01-16T06:56:38;74.37;;;51.37;;
10031;SDS011;5056;44.272;19.892;2023-01-16T06:59:06;81.20;;;55.83;;
10031;SDS011;5056;44.272;19.892;2023-01-16T07:01:33;88.70;;;59.03;;
10031;SDS011;5056;44.272;19.892;2023-01-16T07:04:00;88.33;;;60.10;;
10031;SDS011;5056;44.272;19.892;2023-01-16T07:06:30;75.93;;;52.77;;
10031;SDS011;5056;44.272;19.892;2023-01-16T07:08:59;82.90;;;57.60;;
10031;SDS011;5056;44.272;19.892;2023-01-16T07:11:26;116.37;;;80.83;;
10031;SDS011;5056;44.272;19.892;2023-01-16T07:13:52;94.93;;;67.63;;
10031;SDS011;5056;44.272;19.892;2023-01-16T07:16:40;83.80;;;57.97;;
10031;SDS011;5056;44.272;19.892;2023-01-16T07:19:24;82.27;;;58.00;;
10031;SDS011;5056;44.272;19.892;2023-01-16T07:22:23;76.30;;;55.43;;
10031;SDS011;5056;44.272;19.892;2023-01-16T07:25:07;74.83;;;52.57;;
10031;SDS011;5056;44.272;19.892;2023-01-16T07:27:38;82.23;;;58.90;;
10031;SDS011;5056;44.272;19.892;2023-01-16T07:30:07;79.67;;;59.80;;
10031;SDS011;5056;44.272;19.892;2023-01-16T07:32:36;85.33;;;61.50;;
10031;SDS011;5056;44.272;19.892;2023-01-16T07:35:03;85.63;;;59.47;;
10031;SDS011;5056;44.272;19.892;2023-01-16T07:37:32;85.70;;;61.53;;
10031;SDS011;5056;44.272;19.892;2023-01-16T07:40:02;93.23;;;63.50;;
10031;SDS011;5056;44.272;19.892;2023-01-16T07:42:32;99.97;;;71.93;;
10031;SDS011;5056;44.272;19.892;2023-01-16T07:45:00;107.33;;;75.83;;
10031;SDS011;5056;44.272;19.892;2023-01-16T07:47:26;129.07;;;89.63;;
10031;SDS011;5056;44.272;19.892;2023-01-16T07:49:54;130.40;;;82.73;;
10031;SDS011;5056;44.272;19.892;2023-01-16T07:52:22;116.57;;;76.13;;
10031;SDS011;5056;44.272;19.892;2023-01-16T07:54:49;98.80;;;64.33;;
10031;SDS011;5056;44.272;19.892;2023-01-16T07:57:18;107.77;;;66.93;;
10031;SDS011;5056;44.272;19.892;2023-01-16T07:59:44;102.83;;;69.17;;
10031;SDS011;5056;44.272;19.892;2023-01-16T08:02:13;89.77;;;59.07;;
10031;SDS011;5056;44.272;19.892;2023-01-16T08:04:44;85.63;;;58.13;;
10031;SDS011;5056;44.272;19.892;2023-01-16T08:07:11;75.10;;;53.30;;
10031;SDS011;5056;44.272;19.892;2023-01-16T08:09:39;78.37;;;55.23;;
10031;SDS011;5056;44.272;19.892;2023-01-16T08:12:06;76.33;;;53.30;;
10031;SDS011;5056;44.272;19.892;2023-01-16T08:14:35;82.67;;;55.80;;
10031;SDS011;5056;44.272;19.892;2023-01-16T08:17:04;67.30;;;50.53;;
10031;SDS011;5056;44.272;19.892;2023-01-16T08:19:31;72.13;;;51.23;;
10031;SDS011;5056;44.272;19.892;2023-01-16T08:21:58;85.00;;;56.63;;
10031;SDS011;5056;44.272;19.892;2023-01-16T08:24:26;76.63;;;54.00;;
10031;SDS011;5056;44.272;19.892;2023-01-16T08:26:52;76.77;;;55.47;;
10031;SDS011;5056;44.272;19.892;2023-01-16T08:29:20;79.70;;;55.93;;
10031;SDS011;5056;44.272;19.892;2023-01-16T08:31:49;93.73;;;62.93;;
10031;SDS011;5056;44.272;19.892;2023-01-16T08:34:16;90.93;;;62.63;;
10031;SDS011;5056;44.272;19.892;2023-01-16T08:36:44;88.60;;;59.80;;
10031;SDS011;5056;44.272;19.892;2023-01-16T08:39:14;99.30;;;65.73;;
10031;SDS011;5056;44.272;19.892;2023-01-16T08:41:41;171.57;;;107.93;;
10031;SDS011;5056;44.272;19.892;2023-01-16T08:44:26;127.00;;;79.77;;
10031;SDS011;5056;44.272;19.892;2023-01-16T08:47:17;110.33;;;75.47;;
10031;SDS011;5056;44.272;19.892;2023-01-16T08:50:05;107.87;;;69.87;;
10031;SDS011;5056;44.272;19.892;2023-01-16T08:52:54;105.03;;;68.70;;
10031;SDS011;5056;44.272;19.892;2023-01-16T08:55:21;109.37;;;77.03;;
10031;SDS011;5056;44.272;19.892;2023-01-16T08:57:49;117.07;;;81.77;;
10031;SDS011;5056;44.272;19.892;2023-01-16T09:00:19;136.33;;;91.17;;
10031;SDS011;5056;44.272;19.892;2023-01-16T09:02:49;122.43;;;81.17;;
10031;SDS011;5056;44.272;19.892;2023-01-16T09:05:16;120.27;;;82.03;;
10031;SDS011;5056;44.272;19.892;2023-01-16T09:10:29;167.57;;;109.43;;
10031;SDS011;5056;44.272;19.892;2023-01-16T09:12:56;150.43;;;101.30;;
10031;SDS011;5056;44.272;19.892;2023-01-16T09:15:41;148.63;;;96.77;;
10031;SDS011;5056;44.272;19.892;2023-01-16T09:18:10;185.07;;;118.80;;
10031;SDS011;5056;44.272;19.892;2023-01-16T09:20:38;177.37;;;116.53;;
10031;SDS011;5056;44.272;19.892;2023-01-16T09:23:08;149.57;;;102.13;;
10031;SDS011;5056;44.272;19.892;2023-01-16T09:25:36;224.20;;;132.70;;
10031;SDS011;5056;44.272;19.892;2023-01-16T09:28:04;221.60;;;134.33;;
10031;SDS011;5056;44.272;19.892;2023-01-16T09:30:36;197.43;;;124.23;;
10031;SDS011;5056;44.272;19.892;2023-01-16T09:33:07;192.13;;;119.53;;
10031;SDS011;5056;44.272;19.892;2023-01-16T09:35:48;223.03;;;128.97;;
10031;SDS011;5056;44.272;19.892;2023-01-16T09:38:15;258.53;;;140.27;;
10031;SDS011;5056;44.272;19.892;2023-01-16T09:40:47;285.13;;;155.23;;
10031;SDS011;5056;44.272;19.892;2023-01-16T09:43:23;259.07;;;144.30;;
10031;SDS011;5056;44.272;19.892;2023-01-16T09:46:08;221.07;;;125.37;;
10031;SDS011;5056;44.272;19.892;2023-01-16T09:48:38;205.20;;;119.53;;
10031;SDS011;5056;44.272;19.892;2023-01-16T09:51:16;192.77;;;111.53;;
10031;SDS011;5056;44.272;19.892;2023-01-16T09:53:45;221.63;;;131.97;;
10031;SDS011;5056;44.272;19.892;2023-01-16T09:56:34;206.17;;;123.30;;
10031;SDS011;5056;44.272;19.892;2023-01-16T09:59:23;198.73;;;124.87;;
10031;SDS011;5056;44.272;19.892;2023-01-16T10:01:55;187.53;;;115.30;;
10031;SDS011;5056;44.272;19.892;2023-01-16T10:04:26;171.63;;;112.50;;
10031;SDS011;5056;44.272;19.892;2023-01-16T10:07:00;180.00;;;115.17;;
10031;SDS011;5056;44.272;19.892;2023-01-16T10:09:48;162.50;;;104.27;;
10031;SDS011;5056;44.272;19.892;2023-01-16T10:12:20;146.43;;;96.50;;
10031;SDS011;5056;44.272;19.892;2023-01-16T10:14:51;123.03;;;83.67;;
10031;SDS011;5056;44.272;19.892;2023-01-16T10:17:27;119.03;;;78.57;;
10031;SDS011;5056;44.272;19.892;2023-01-16T10:22:57;87.77;;;60.03;;
10031;SDS011;5056;44.272;19.892;2023-01-16T10:25:31;99.57;;;64.23;;
10031;SDS011;5056;44.272;19.892;2023-01-16T10:28:09;76.97;;;54.20;;
10031;SDS011;5056;44.272;19.892;2023-01-16T10:30:44;57.13;;;41.73;;
10031;SDS011;5056;44.272;19.892;2023-01-16T10:33:13;51.03;;;37.03;;
10031;SDS011;5056;44.272;19.892;2023-01-16T10:35:45;35.00;;;25.40;;
10031;SDS011;5056;44.272;19.892;2023-01-16T10:38:21;29.03;;;20.50;;
10031;SDS011;5056;44.272;19.892;2023-01-16T10:40:54;31.17;;;22.10;;
10031;SDS011;5056;44.272;19.892;2023-01-16T10:43:25;28.63;;;21.93;;
10031;SDS011;5056;44.272;19.892;2023-01-16T10:46:14;28.57;;;20.77;;
10031;SDS011;5056;44.272;19.892;2023-01-16T10:49:01;23.83;;;19.07;;
10031;SDS011;5056;44.272;19.892;2023-01-16T10:51:51;25.50;;;19.03;;
10031;SDS011;5056;44.272;19.892;2023-01-16T10:54:19;25.10;;;20.63;;
10031;SDS011;5056;44.272;19.892;2023-01-16T10:56:46;22.50;;;19.20;;
10031;SDS011;5056;44.272;19.892;2023-01-16T11:02:27;29.40;;;21.40;;
10031;SDS011;5056;44.272;19.892;2023-01-16T11:04:56;30.73;;;21.63;;
10031;SDS011;5056;44.272;19.892;2023-01-16T11:07:26;27.47;;;20.50;;
10031;SDS011;5056;44.272;19.892;2023-01-16T11:09:55;29.80;;;21.47;;
10031;SDS011;5056;44.272;19.892;2023-01-16T11:12:23;35.03;;;23.87;;
10031;SDS011;5056;44.272;19.892;2023-01-16T11:15:15;26.93;;;22.23;;
10031;SDS011;5056;44.272;19.892;2023-01-16T11:17:58;72.13;;;43.07;;
10031;SDS011;5056;44.272;19.892;2023-01-16T11:20:42;224.23;;;108.23;;
10031;SDS011;5056;44.272;19.892;2023-01-16T11:23:14;229.67;;;114.83;;
10031;SDS011;5056;44.272;19.892;2023-01-16T11:25:45;42.43;;;26.23;;
10031;SDS011;5056;44.272;19.892;2023-01-16T11:28:17;49.47;;;34.73;;
10031;SDS011;5056;44.272;19.892;2023-01-16T11:30:51;35.50;;;24.67;;
10031;SDS011;5056;44.272;19.892;2023-01-16T11:33:24;32.43;;;22.97;;
10031;SDS011;5056;44.272;19.892;2023-01-16T11:35:54;29.73;;;21.20;;
10031;SDS011;5056;44.272;19.892;2023-01-16T11:38:22;44.23;;;29.23;;
10031;SDS011;5056;44.272;19.892;2023-01-16T11:40:52;31.87;;;23.30;;
10031;SDS011;5056;44.272;19.892;2023-01-16T11:43:22;47.93;;;30.30;;
10031;SDS011;5056;44.272;19.892;2023-01-16T11:46:21;47.03;;;31.47;;
10031;SDS011;5056;44.272;19.892;2023-01-16T11:49:00;50.40;;;32.47;;
10031;SDS011;5056;44.272;19.892;2023-01-16T11:51:30;51.03;;;33.40;;
10031;SDS011;5056;44.272;19.892;2023-01-16T11:53:58;39.63;;;27.40;;
10031;SDS011;5056;44.272;19.892;2023-01-16T11:56:33;49.10;;;32.77;;
10031;SDS011;5056;44.272;19.892;2023-01-16T11:59:16;35.80;;;26.60;;
10031;SDS011;5056;44.272;19.892;2023-01-16T12:01:52;28.33;;;20.20;;
10031;SDS011;5056;44.272;19.892;2023-01-16T12:04:42;24.97;;;19.50;;
10031;SDS011;5056;44.272;19.892;2023-01-16T12:07:36;27.47;;;19.63;;
10031;SDS011;5056;44.272;19.892;2023-01-16T12:10:10;27.07;;;22.27;;
10031;SDS011;5056;44.272;19.892;2023-01-16T12:12:44;66.33;;;42.60;;
10031;SDS011;5056;44.272;19.892;2023-01-16T12:15:38;29.93;;;20.03;;
10031;SDS011;5056;44.272;19.892;2023-01-16T12:18:12;32.93;;;22.63;;
10031;SDS011;5056;44.272;19.892;2023-01-16T12:20:47;31.40;;;19.53;;
10031;SDS011;5056;44.272;19.892;2023-01-16T12:26:18;32.47;;;22.37;;
10031;SDS011;5056;44.272;19.892;2023-01-16T12:28:51;20.63;;;16.70;;
10031;SDS011;5056;44.272;19.892;2023-01-16T12:31:30;28.77;;;20.97;;
10031;SDS011;5056;44.272;19.892;2023-01-16T12:34:11;43.37;;;33.53;;
10031;SDS011;5056;44.272;19.892;2023-01-16T12:37:02;23.77;;;18.73;;
10031;SDS011;5056;44.272;19.892;2023-01-16T12:39:42;21.30;;;15.87;;
10031;SDS011;5056;44.272;19.892;2023-01-16T12:42:14;19.43;;;14.17;;
10031;SDS011;5056;44.272;19.892;2023-01-16T12:45:09;39.37;;;27.77;;
10031;SDS011;5056;44.272;19.892;2023-01-16T12:47:47;24.70;;;20.97;;
10031;SDS011;5056;44.272;19.892;2023-01-16T12:50:27;26.30;;;17.47;;
10031;SDS011;5056;44.272;19.892;2023-01-16T12:53:04;21.23;;;15.77;;
10031;SDS011;5056;44.272;19.892;2023-01-16T12:55:49;18.20;;;13.20;;
10031;SDS011;5056;44.272;19.892;2023-01-16T12:58:24;14.83;;;11.93;;
10031;SDS011;5056;44.272;19.892;2023-01-16T13:01:01;16.63;;;12.13;;
10031;SDS011;5056;44.272;19.892;2023-01-16T13:03:35;18.60;;;13.50;;
10031;SDS011;5056;44.272;19.892;2023-01-16T13:06:06;23.50;;;16.83;;
10031;SDS011;5056;44.272;19.892;2023-01-16T13:08:36;23.80;;;17.63;;
10031;SDS011;5056;44.272;19.892;2023-01-16T13:11:07;18.87;;;15.67;;
10031;SDS011;5056;44.272;19.892;2023-01-16T13:13:55;22.63;;;16.60;;
10031;SDS011;5056;44.272;19.892;2023-01-16T13:16:27;21.30;;;17.53;;
10031;SDS011;5056;44.272;19.892;2023-01-16T13:18:58;21.10;;;14.57;;
10031;SDS011;5056;44.272;19.892;2023-01-16T13:21:30;26.17;;;15.47;;
10031;SDS011;5056;44.272;19.892;2023-01-16T13:24:00;29.67;;;21.93;;
10031;SDS011;5056;44.272;19.892;2023-01-16T13:26:31;26.43;;;18.87;;
10031;SDS011;5056;44.272;19.892;2023-01-16T13:28:59;20.33;;;16.90;;
10031;SDS011;5056;44.272;19.892;2023-01-16T13:31:33;34.67;;;25.23;;
10031;SDS011;5056;44.272;19.892;2023-01-16T13:34:03;29.20;;;21.30;;
10031;SDS011;5056;44.272;19.892;2023-01-16T13:39:59;24.40;;;20.73;;
10031;SDS011;5056;44.272;19.892;2023-01-16T13:42:32;30.90;;;23.27;;
10031;SDS011;5056;44.272;19.892;2023-01-16T13:45:05;30.67;;;21.30;;
10031;SDS011;5056;44.272;19.892;2023-01-16T13:47:56;24.87;;;21.03;;
10031;SDS011;5056;44.272;19.892;2023-01-16T13:50:24;38.97;;;25.30;;
10031;SDS011;5056;44.272;19.892;2023-01-16T13:52:53;35.80;;;25.00;;
10031;SDS011;5056;44.272;19.892;2023-01-16T13:55:24;30.07;;;22.40;;
10031;SDS011;5056;44.272;19.892;2023-01-16T13:57:54;25.83;;;20.00;;
10031;SDS011;5056;44.272;19.892;2023-01-16T14:00:33;16.63;;;13.10;;
10031;SDS011;5056;44.272;19.892;2023-01-16T14:03:14;24.47;;;17.43;;
10031;SDS011;5056;44.272;19.892;2023-01-16T14:05:48;18.77;;;13.90;;
10031;SDS011;5056;44.272;19.892;2023-01-16T14:11:36;21.23;;;19.03;;
10031;SDS011;5056;44.272;19.892;2023-01-16T14:14:26;21.87;;;13.60;;
10031;SDS011;5056;44.272;19.892;2023-01-16T14:17:19;21.70;;;18.57;;
10031;SDS011;5056;44.272;19.892;2023-01-16T14:20:01;21.53;;;15.80;;
10031;SDS011;5056;44.272;19.892;2023-01-16T14:22:33;20.50;;;16.23;;
10031;SDS011;5056;44.272;19.892;2023-01-16T14:25:19;19.50;;;16.20;;
10031;SDS011;5056;44.272;19.892;2023-01-16T14:27:51;19.73;;;15.10;;
10031;SDS011;5056;44.272;19.892;2023-01-16T14:30:24;34.30;;;23.57;;
10031;SDS011;5056;44.272;19.892;2023-01-16T14:32:52;36.23;;;22.27;;
10031;SDS011;5056;44.272;19.892;2023-01-16T14:35:24;28.17;;;17.80;;
10031;SDS011;5056;44.272;19.892;2023-01-16T14:37:54;21.90;;;17.40;;
10031;SDS011;5056;44.272;19.892;2023-01-16T14:40:24;41.47;;;26.50;;
10031;SDS011;5056;44.272;19.892;2023-01-16T14:43:07;24.53;;;19.73;;
10031;SDS011;5056;44.272;19.892;2023-01-16T14:48:58;31.33;;;21.87;;
10031;SDS011;5056;44.272;19.892;2023-01-16T14:51:58;49.87;;;36.70;;
10031;SDS011;5056;44.272;19.892;2023-01-16T14:54:43;39.13;;;30.80;;
10031;SDS011;5056;44.272;19.892;2023-01-16T14:57:27;30.43;;;23.70;;
10031;SDS011;5056;44.272;19.892;2023-01-16T14:59:56;26.80;;;20.40;;
10031;SDS011;5056;44.272;19.892;2023-01-16T15:02:28;25.73;;;19.90;;
10031;SDS011;5056;44.272;19.892;2023-01-16T15:05:03;39.90;;;25.63;;
10031;SDS011;5056;44.272;19.892;2023-01-16T15:07:35;45.03;;;32.00;;
10031;SDS011;5056;44.272;19.892;2023-01-16T15:10:07;70.93;;;43.80;;
10031;SDS011;5056;44.272;19.892;2023-01-16T15:12:38;75.87;;;46.30;;
10031;SDS011;5056;44.272;19.892;2023-01-16T15:15:06;63.80;;;42.83;;
10031;SDS011;5056;44.272;19.892;2023-01-16T15:17:45;53.80;;;37.90;;
10031;SDS011;5056;44.272;19.892;2023-01-16T15:20:27;44.20;;;30.67;;
10031;SDS011;5056;44.272;19.892;2023-01-16T15:23:18;36.60;;;25.97;;
10031;SDS011;5056;44.272;19.892;2023-01-16T15:25:51;31.73;;;22.67;;
10031;SDS011;5056;44.272;19.892;2023-01-16T15:28:26;26.70;;;21.33;;
10031;SDS011;5056;44.272;19.892;2023-01-16T15:30:57;29.60;;;21.50;;
10031;SDS011;5056;44.272;19.892;2023-01-16T15:33:26;24.03;;;19.43;;
10031;SDS011;5056;44.272;19.892;2023-01-16T15:36:21;30.37;;;22.17;;